createdAt,value
2022-12-03T00:00:22.059Z,46.80
2022-12-03T00:02:51.009Z,46.97
2022-12-03T00:05:19.994Z,52.80
2022-12-03T00:07:48.923Z,48.13
2022-12-03T00:10:18.066Z,50.90
2022-12-03T00:12:48.356Z,49.63
2022-12-03T00:15:17.364Z,51.70
2022-12-03T00:17:46.373Z,52.03
2022-12-03T00:20:22.528Z,52.97
2022-12-03T00:22:51.367Z,44.63
2022-12-03T00:25:20.270Z,50.23
2022-12-03T00:27:50.584Z,49.57
2022-12-03T00:30:19.683Z,57.67
2022-12-03T00:32:48.600Z,55.80
2022-12-03T00:35:17.513Z,54.30
2022-12-03T00:37:46.326Z,61.50
2022-12-03T00:40:15.502Z,52.93
2022-12-03T00:42:44.342Z,52.77
2022-12-03T00:45:14.654Z,52.93
2022-12-03T00:47:43.493Z,47.37
2022-12-03T00:50:13.077Z,51.47
2022-12-03T00:52:42.547Z,54.23
2022-12-03T00:55:11.652Z,56.70
2022-12-03T00:57:40.572Z,51.73
2022-12-03T01:00:11.255Z,50.43
2022-12-03T01:02:41.677Z,46.63
2022-12-03T01:05:11.071Z,47.10
2022-12-03T01:07:40.036Z,54.60
2022-12-03T01:10:09.737Z,50.53
2022-12-03T01:12:38.666Z,54.70
2022-12-03T01:15:08.827Z,53.00
2022-12-03T01:17:37.927Z,54.40
2022-12-03T01:20:10.151Z,52.33
2022-12-03T01:22:39.084Z,52.30
2022-12-03T01:25:08.606Z,49.90
2022-12-03T01:27:37.453Z,45.67
2022-12-03T01:30:07.674Z,47.67
2022-12-03T01:32:35.554Z,43.00
2022-12-03T01:35:04.419Z,52.63
2022-12-03T01:37:34.806Z,43.33
2022-12-03T01:40:04.090Z,44.03
2022-12-03T01:42:35.396Z,46.67
2022-12-03T01:45:05.213Z,48.03
2022-12-03T01:47:36.544Z,47.77
2022-12-03T01:50:09.158Z,43.67
2022-12-03T01:52:40.850Z,42.13
2022-12-03T01:55:15.767Z,42.60
2022-12-03T01:57:48.532Z,41.20
2022-12-03T02:00:19.148Z,42.67
2022-12-03T02:02:49.964Z,45.27
2022-12-03T02:05:21.738Z,41.80
2022-12-03T02:07:52.242Z,41.63
2022-12-03T02:10:26.521Z,43.80
2022-12-03T02:13:00.007Z,43.57
2022-12-03T02:15:29.154Z,43.57
2022-12-03T02:17:58.716Z,40.87
2022-12-03T02:20:27.715Z,41.30
2022-12-03T02:23:07.865Z,39.50
2022-12-03T02:25:39.246Z,43.53
2022-12-03T02:28:10.584Z,39.87
2022-12-03T02:30:39.627Z,39.83
2022-12-03T02:33:08.682Z,37.23
2022-12-03T02:35:38.789Z,35.17
2022-12-03T02:38:13.188Z,34.73
2022-12-03T02:40:45.112Z,40.47
2022-12-03T02:43:15.020Z,34.07
2022-12-03T02:45:46.004Z,33.83
2022-12-03T02:48:19.217Z,36.33
2022-12-03T02:50:52.187Z,32.70
2022-12-03T02:53:23.457Z,35.73
2022-12-03T02:55:55.775Z,33.67
2022-12-03T02:58:25.746Z,33.67
2022-12-03T03:00:56.221Z,34.60
2022-12-03T03:03:26.605Z,34.13
2022-12-03T03:05:56.915Z,34.07
2022-12-03T03:08:26.870Z,32.00
2022-12-03T03:10:58.373Z,31.90
2022-12-03T03:13:27.699Z,33.27
2022-12-03T03:15:57.316Z,31.13
2022-12-03T03:18:26.399Z,29.93
2022-12-03T03:20:55.288Z,31.10
2022-12-03T03:23:25.396Z,30.70
2022-12-03T03:26:01.248Z,33.10
2022-12-03T03:28:31.695Z,30.30
2022-12-03T03:31:03.221Z,32.93
2022-12-03T03:33:32.612Z,32.13
2022-12-03T03:36:02.327Z,30.57
2022-12-03T03:38:31.914Z,33.53
2022-12-03T03:41:04.277Z,31.17
2022-12-03T03:43:36.024Z,35.87
2022-12-03T03:46:06.563Z,31.30
2022-12-03T03:48:36.854Z,30.30
2022-12-03T03:51:09.719Z,31.97
2022-12-03T03:53:40.504Z,33.90
2022-12-03T03:56:11.727Z,32.57
2022-12-03T03:58:40.827Z,31.10
2022-12-03T04:01:12.600Z,34.27
2022-12-03T04:03:41.713Z,28.90
2022-12-03T04:06:11.378Z,37.57
2022-12-03T04:08:40.286Z,30.43
2022-12-03T04:11:28.058Z,33.47
2022-12-03T04:13:56.913Z,28.63
2022-12-03T04:16:25.826Z,37.07
2022-12-03T04:18:54.783Z,32.53
2022-12-03T04:21:42.977Z,32.40
2022-12-03T04:24:12.944Z,28.13
2022-12-03T04:27:00.944Z,29.80
2022-12-03T04:29:29.879Z,29.67
2022-12-03T04:32:16.561Z,29.67
2022-12-03T04:35:02.702Z,28.00
2022-12-03T04:37:31.668Z,32.93
2022-12-03T04:40:00.580Z,30.87
2022-12-03T04:42:30.826Z,36.23
2022-12-03T04:44:59.715Z,30.80
2022-12-03T04:47:28.632Z,33.37
2022-12-03T04:49:57.493Z,31.03
2022-12-03T04:52:26.352Z,28.50
2022-12-03T04:54:55.398Z,31.17
2022-12-03T04:57:24.512Z,33.80
2022-12-03T04:59:54.736Z,29.23
2022-12-03T05:02:23.649Z,33.83
2022-12-03T05:04:52.894Z,28.57
2022-12-03T05:07:21.857Z,31.77
2022-12-03T05:09:50.813Z,29.10
2022-12-03T05:12:19.688Z,32.00
2022-12-03T05:14:48.618Z,31.33
2022-12-03T05:17:18.953Z,31.93
2022-12-03T05:20:05.302Z,29.87
2022-12-03T05:22:34.279Z,33.33
2022-12-03T05:25:03.295Z,32.43
2022-12-03T05:27:32.177Z,33.67
2022-12-03T05:30:01.048Z,32.90
2022-12-03T05:32:31.339Z,31.70
2022-12-03T05:35:00.476Z,31.83
2022-12-03T05:37:29.283Z,29.33
2022-12-03T05:39:58.114Z,35.90
2022-12-03T05:42:44.476Z,31.30
2022-12-03T05:45:13.367Z,33.87
2022-12-03T05:47:43.651Z,28.03
2022-12-03T05:50:13.028Z,32.90
2022-12-03T05:52:41.959Z,31.67
2022-12-03T05:55:11.987Z,31.80
2022-12-03T05:57:41.081Z,28.27
2022-12-03T06:00:14.585Z,33.63
2022-12-03T06:02:45.341Z,36.47
2022-12-03T06:05:15.630Z,33.27
2022-12-03T06:07:44.743Z,32.97
2022-12-03T06:10:16.017Z,30.50
2022-12-03T06:12:45.132Z,31.17
2022-12-03T06:15:15.383Z,33.40
2022-12-03T06:17:45.603Z,33.30
2022-12-03T06:20:16.582Z,30.00
2022-12-03T06:22:45.786Z,33.53
2022-12-03T06:25:15.193Z,29.37
2022-12-03T06:27:44.064Z,31.93
2022-12-03T06:30:15.279Z,29.27
2022-12-03T06:32:45.620Z,31.33
2022-12-03T06:35:14.688Z,34.27
2022-12-03T06:37:43.546Z,33.97
2022-12-03T06:40:13.553Z,32.70
2022-12-03T06:42:43.155Z,29.80
2022-12-03T06:45:12.892Z,28.13
2022-12-03T06:47:41.792Z,30.17
2022-12-03T06:50:13.832Z,31.93
2022-12-03T06:52:42.704Z,32.23
2022-12-03T06:55:11.839Z,26.13
2022-12-03T06:57:40.629Z,32.93
2022-12-03T07:00:10.859Z,27.00
2022-12-03T07:02:39.734Z,36.83
2022-12-03T07:05:10.044Z,31.03
2022-12-03T07:07:40.424Z,30.53
2022-12-03T07:10:10.324Z,28.73
2022-12-03T07:12:39.137Z,29.33
2022-12-03T07:15:09.233Z,31.03
2022-12-03T07:17:38.348Z,31.20
2022-12-03T07:20:08.867Z,29.97
2022-12-03T07:22:37.825Z,26.13
2022-12-03T07:25:10.065Z,26.40
2022-12-03T07:27:39.320Z,26.83
2022-12-03T07:30:09.725Z,29.27
2022-12-03T07:32:38.802Z,29.97
2022-12-03T07:35:08.396Z,28.70
2022-12-03T07:37:37.422Z,27.40
2022-12-03T07:40:09.931Z,30.47
2022-12-03T07:42:39.116Z,32.80
2022-12-03T07:45:09.433Z,33.53
2022-12-03T07:47:38.432Z,28.43
2022-12-03T07:50:08.610Z,30.90
2022-12-03T07:52:37.485Z,30.07
2022-12-03T07:55:09.056Z,29.33
2022-12-03T07:57:37.908Z,32.33
2022-12-03T08:00:08.740Z,31.57
2022-12-03T08:02:37.661Z,33.77
2022-12-03T08:05:07.418Z,32.23
2022-12-03T08:07:36.884Z,29.43
2022-12-03T08:10:08.243Z,30.67
2022-12-03T08:12:42.585Z,28.60
2022-12-03T08:15:16.459Z,30.53
2022-12-03T08:17:46.485Z,31.27
2022-12-03T08:20:18.939Z,34.67
2022-12-03T08:22:49.482Z,31.47
2022-12-03T08:25:24.360Z,33.00
2022-12-03T08:27:56.873Z,27.57
2022-12-03T08:30:25.917Z,33.73
2022-12-03T08:32:55.665Z,32.13
2022-12-03T08:35:26.935Z,33.57
2022-12-03T08:38:01.202Z,31.83
2022-12-03T08:40:36.428Z,33.10
2022-12-03T08:43:14.477Z,30.37
2022-12-03T08:45:43.637Z,31.07
2022-12-03T08:48:28.208Z,29.67
2022-12-03T08:50:59.198Z,31.27
2022-12-03T08:53:32.840Z,34.33
2022-12-03T08:56:06.684Z,32.93
2022-12-03T08:58:40.007Z,32.93
2022-12-03T09:01:40.561Z,32.20
2022-12-03T09:04:28.123Z,28.33
2022-12-03T09:06:57.850Z,29.43
2022-12-03T09:09:27.226Z,35.17
2022-12-03T09:11:57.937Z,30.97
2022-12-03T09:14:26.836Z,32.40
2022-12-03T09:16:56.509Z,33.13
2022-12-03T09:19:26.305Z,32.20
2022-12-03T09:21:56.221Z,34.60
2022-12-03T09:24:25.592Z,31.80
2022-12-03T09:26:54.555Z,27.47
2022-12-03T09:29:24.879Z,32.90
2022-12-03T09:31:54.865Z,30.90
2022-12-03T09:34:23.801Z,33.83
2022-12-03T09:36:52.747Z,29.40
2022-12-03T09:39:21.643Z,31.03
2022-12-03T09:41:51.427Z,30.57
2022-12-03T09:44:20.598Z,28.93
2022-12-03T09:46:51.177Z,33.67
2022-12-03T09:49:21.256Z,30.67
2022-12-03T09:51:50.106Z,30.33
2022-12-03T09:54:25.800Z,33.57
2022-12-03T09:56:56.332Z,30.03
2022-12-03T09:59:27.989Z,37.20
2022-12-03T10:01:58.859Z,30.57
2022-12-03T10:04:28.986Z,30.50
2022-12-03T10:06:59.677Z,29.73
2022-12-03T10:09:30.380Z,30.13
2022-12-03T10:12:00.801Z,29.60
2022-12-03T10:14:31.122Z,28.40
2022-12-03T10:17:01.537Z,28.23
2022-12-03T10:19:32.944Z,32.97
2022-12-03T10:22:01.770Z,30.87
2022-12-03T10:24:32.722Z,29.00
2022-12-03T10:27:04.403Z,26.10
2022-12-03T10:29:35.265Z,28.00
2022-12-03T10:32:07.336Z,29.07
2022-12-03T10:34:38.569Z,29.67
2022-12-03T10:37:12.779Z,28.33
2022-12-03T10:39:56.475Z,29.03
2022-12-03T10:42:26.419Z,26.93
2022-12-03T10:45:18.140Z,29.23
2022-12-03T10:48:05.223Z,28.20
2022-12-03T10:50:35.049Z,29.00
2022-12-03T10:53:04.473Z,33.13
2022-12-03T10:55:38.570Z,32.77
2022-12-03T10:58:08.129Z,32.60
2022-12-03T11:00:37.020Z,30.57
2022-12-03T11:03:17.372Z,27.50
2022-12-03T11:05:46.490Z,30.17
2022-12-03T11:08:23.535Z,31.93
2022-12-03T11:11:04.461Z,29.93
2022-12-03T11:13:51.428Z,30.13
2022-12-03T11:17:00.061Z,29.77
2022-12-03T11:19:46.696Z,29.90
2022-12-03T11:22:29.921Z,31.10
2022-12-03T11:25:51.575Z,29.60
2022-12-03T11:28:38.910Z,32.63
2022-12-03T11:31:15.206Z,32.17
2022-12-03T11:33:44.774Z,33.60
2022-12-03T11:36:36.382Z,29.93
2022-12-03T11:39:10.215Z,31.93
2022-12-03T11:42:26.955Z,32.93
2022-12-03T11:45:16.780Z,33.13
2022-12-03T11:47:47.905Z,28.17
2022-12-03T11:50:24.169Z,32.30
2022-12-03T11:52:57.525Z,33.63
2022-12-03T11:55:30.650Z,32.80
2022-12-03T11:58:01.373Z,37.43
2022-12-03T12:00:31.948Z,34.97
2022-12-03T12:03:01.666Z,32.03
2022-12-03T12:05:33.697Z,32.07
2022-12-03T12:08:04.493Z,32.83
2022-12-03T12:10:41.768Z,36.33
2022-12-03T12:13:42.990Z,31.90
2022-12-03T12:16:12.169Z,32.07
2022-12-03T12:18:43.020Z,34.00
2022-12-03T12:21:40.031Z,35.07
2022-12-03T12:24:38.467Z,39.00
2022-12-03T12:27:09.664Z,38.23
2022-12-03T12:29:40.750Z,35.30
2022-12-03T12:32:16.116Z,35.03
2022-12-03T12:34:48.174Z,35.07
2022-12-03T12:37:24.597Z,32.27
2022-12-03T12:39:58.649Z,31.87
2022-12-03T12:42:34.410Z,33.57
2022-12-03T12:45:13.912Z,36.17
2022-12-03T12:47:49.941Z,35.27
2022-12-03T12:50:20.271Z,35.10
2022-12-03T12:52:53.854Z,36.40
2022-12-03T12:55:25.349Z,36.27
2022-12-03T12:57:54.630Z,36.50
2022-12-03T13:00:24.908Z,34.73
2022-12-03T13:02:58.053Z,38.10
2022-12-03T13:05:28.550Z,37.67
2022-12-03T13:07:58.319Z,38.00
2022-12-03T13:10:39.785Z,38.67
2022-12-03T13:13:19.084Z,40.17
2022-12-03T13:15:53.977Z,34.70
2022-12-03T13:18:31.340Z,36.83
2022-12-03T13:21:00.664Z,36.87
2022-12-03T13:23:34.903Z,37.77
2022-12-03T13:26:30.425Z,43.03
2022-12-03T13:29:11.630Z,42.37
2022-12-03T13:31:43.721Z,38.73
2022-12-03T13:34:21.060Z,38.60
2022-12-03T13:36:57.167Z,41.27
2022-12-03T13:39:31.527Z,41.77
2022-12-03T13:42:31.775Z,36.77
2022-12-03T13:45:02.068Z,41.37
2022-12-03T13:47:31.125Z,36.33
2022-12-03T13:50:05.222Z,39.47
2022-12-03T13:52:36.310Z,39.50
2022-12-03T13:55:09.114Z,36.53
2022-12-03T13:57:39.630Z,38.07
2022-12-03T14:00:11.272Z,38.77
2022-12-03T14:02:41.480Z,41.77
2022-12-03T14:05:11.591Z,37.20
2022-12-03T14:07:40.881Z,38.07
2022-12-03T14:10:12.843Z,33.70
2022-12-03T14:12:43.166Z,38.90
2022-12-03T14:15:12.708Z,36.87
2022-12-03T14:17:41.704Z,40.13
2022-12-03T14:20:11.620Z,41.33
2022-12-03T14:22:40.533Z,38.57
2022-12-03T14:25:10.241Z,41.80
2022-12-03T14:27:39.571Z,39.83
2022-12-03T14:30:11.395Z,41.23
2022-12-03T14:32:40.369Z,41.57
2022-12-03T14:35:10.371Z,37.30
2022-12-03T14:37:39.421Z,42.33
2022-12-03T14:40:10.090Z,47.10
2022-12-03T14:42:38.943Z,39.47
2022-12-03T14:45:10.699Z,40.67
2022-12-03T14:47:39.636Z,42.90
2022-12-03T14:50:14.484Z,45.73
2022-12-03T14:52:43.875Z,38.80
2022-12-03T14:55:13.153Z,40.97
2022-12-03T14:57:42.104Z,42.80
2022-12-03T15:00:14.591Z,45.60
2022-12-03T15:02:43.961Z,41.10
2022-12-03T15:05:13.663Z,52.53
2022-12-03T15:07:43.053Z,49.20
2022-12-03T15:10:12.635Z,44.67
2022-12-03T15:12:41.668Z,46.17
2022-12-03T15:15:13.506Z,45.03
2022-12-03T15:17:45.944Z,46.50
2022-12-03T15:20:15.422Z,149.13
2022-12-03T15:22:44.816Z,49.33
2022-12-03T15:25:13.997Z,47.17
2022-12-03T15:27:43.048Z,51.50
2022-12-03T15:30:13.744Z,47.10
2022-12-03T15:32:42.795Z,50.20
2022-12-03T15:35:15.188Z,52.73
2022-12-03T15:37:44.216Z,72.40
2022-12-03T15:40:14.688Z,71.87
2022-12-03T15:42:44.084Z,57.80
2022-12-03T15:45:15.565Z,59.60
2022-12-03T15:47:48.198Z,51.73
2022-12-03T15:50:17.528Z,53.50
2022-12-03T15:52:46.529Z,50.20
2022-12-03T15:55:15.973Z,47.70
2022-12-03T15:57:44.880Z,53.10
2022-12-03T16:00:16.809Z,48.70
2022-12-03T16:02:52.238Z,50.37
2022-12-03T16:05:22.189Z,45.97
2022-12-03T16:07:51.547Z,47.63
2022-12-03T16:10:22.058Z,48.20
2022-12-03T16:12:51.445Z,50.07
2022-12-03T16:15:26.675Z,47.17
2022-12-03T16:17:56.834Z,52.23
2022-12-03T16:20:26.404Z,53.17
2022-12-03T16:22:55.398Z,50.27
2022-12-03T16:25:24.927Z,56.03
2022-12-03T16:27:54.084Z,50.43
2022-12-03T16:30:25.390Z,44.93
2022-12-03T16:32:54.444Z,49.77
2022-12-03T16:35:23.412Z,56.10
2022-12-03T16:37:52.520Z,57.73
2022-12-03T16:40:21.629Z,56.50
2022-12-03T16:42:50.629Z,53.67
2022-12-03T16:45:39.743Z,53.87
2022-12-03T16:48:10.551Z,57.73
2022-12-03T16:50:40.220Z,56.90
2022-12-03T16:53:10.035Z,57.77
2022-12-03T16:55:39.454Z,65.10
2022-12-03T16:58:08.650Z,54.13
2022-12-03T17:00:37.609Z,63.27
2022-12-03T17:03:06.528Z,58.17
2022-12-03T17:05:37.626Z,58.60
2022-12-03T17:08:07.027Z,61.00
2022-12-03T17:10:36.478Z,64.97
2022-12-03T17:13:10.335Z,62.07
2022-12-03T17:15:40.003Z,63.10
2022-12-03T17:18:10.033Z,59.27
2022-12-03T17:20:40.634Z,60.37
2022-12-03T17:23:10.060Z,70.65
2022-12-03T17:25:39.364Z,76.53
2022-12-03T17:28:08.567Z,65.80
2022-12-03T17:30:39.453Z,63.33
2022-12-03T17:33:08.832Z,61.03
2022-12-03T17:35:39.745Z,67.20
2022-12-03T17:38:09.391Z,70.77
2022-12-03T17:40:38.296Z,72.23
2022-12-03T17:43:13.737Z,72.07
2022-12-03T17:45:44.345Z,74.63
2022-12-03T17:48:13.432Z,75.13
2022-12-03T17:50:44.698Z,71.47
2022-12-03T17:53:14.127Z,71.37
2022-12-03T17:55:45.179Z,72.77
2022-12-03T17:58:14.793Z,77.37
2022-12-03T18:00:44.373Z,70.73
2022-12-03T18:03:13.869Z,81.27
2022-12-03T18:05:44.396Z,74.97
2022-12-03T18:08:13.623Z,80.40
2022-12-03T18:10:42.879Z,78.27
2022-12-03T18:13:12.364Z,73.17
2022-12-03T18:15:41.578Z,71.07
2022-12-03T18:18:11.108Z,80.20
2022-12-03T18:20:40.343Z,75.27
2022-12-03T18:23:11.005Z,74.67
2022-12-03T18:25:40.603Z,77.93
2022-12-03T18:28:10.325Z,84.40
2022-12-03T18:30:39.525Z,78.90
2022-12-03T18:33:08.852Z,78.57
2022-12-03T18:35:38.192Z,77.97
2022-12-03T18:38:07.446Z,80.67
2022-12-03T18:40:38.216Z,84.73
2022-12-03T18:43:12.766Z,68.93
2022-12-03T18:45:42.139Z,76.30
2022-12-03T18:48:14.410Z,72.40
2022-12-03T18:50:47.436Z,76.83
2022-12-03T18:53:20.109Z,70.10
2022-12-03T18:55:51.365Z,70.87
2022-12-03T18:58:21.187Z,71.57
2022-12-03T19:00:50.431Z,75.50
2022-12-03T19:03:20.091Z,70.97
2022-12-03T19:05:49.383Z,74.40
2022-12-03T19:08:19.710Z,77.03
2022-12-03T19:10:57.451Z,74.67
2022-12-03T19:13:27.877Z,67.40
2022-12-03T19:15:57.421Z,77.30
2022-12-03T19:18:27.293Z,72.33
2022-12-03T19:20:56.710Z,76.93
2022-12-03T19:23:26.329Z,69.90
2022-12-03T19:26:02.906Z,81.07
2022-12-03T19:28:32.860Z,71.53
2022-12-03T19:31:04.579Z,85.13
2022-12-03T19:33:35.046Z,70.23
2022-12-03T19:36:06.162Z,77.33
2022-12-03T19:38:36.748Z,74.80
2022-12-03T19:41:09.466Z,77.73
2022-12-03T19:43:40.012Z,72.50
2022-12-03T19:46:12.202Z,75.10
2022-12-03T19:48:42.690Z,72.10
2022-12-03T19:51:32.987Z,71.83
2022-12-03T19:54:02.307Z,75.60
2022-12-03T19:56:32.860Z,76.50
2022-12-03T19:59:02.134Z,77.30
2022-12-03T20:01:34.461Z,78.13
2022-12-03T20:04:05.448Z,80.97
2022-12-03T20:06:38.082Z,74.47
2022-12-03T20:09:11.289Z,76.67
2022-12-03T20:11:44.767Z,79.03
2022-12-03T20:14:15.919Z,68.53
2022-12-03T20:16:46.038Z,80.03
2022-12-03T20:19:17.735Z,80.77
2022-12-03T20:21:48.269Z,71.30
2022-12-03T20:24:19.537Z,75.67
2022-12-03T20:26:50.444Z,72.00
2022-12-03T20:29:19.606Z,79.47
2022-12-03T20:31:48.794Z,67.90
2022-12-03T20:34:18.448Z,71.57
2022-12-03T20:36:47.854Z,79.50
2022-12-03T20:39:17.301Z,73.47
2022-12-03T20:41:46.810Z,75.67
2022-12-03T20:44:19.212Z,67.53
2022-12-03T20:46:49.301Z,71.70
2022-12-03T20:49:18.875Z,69.17
2022-12-03T20:51:51.079Z,74.13
2022-12-03T20:54:20.766Z,68.93
2022-12-03T20:56:50.476Z,72.23
2022-12-03T20:59:21.400Z,67.47
2022-12-03T21:01:50.926Z,74.93
2022-12-03T21:04:21.198Z,79.67
2022-12-03T21:06:50.760Z,73.43
2022-12-03T21:09:20.536Z,80.17
2022-12-03T21:11:51.124Z,71.83
2022-12-03T21:14:21.804Z,80.83
2022-12-03T21:17:07.809Z,71.20
2022-12-03T21:19:38.393Z,73.93
2022-12-03T21:22:08.641Z,77.07
2022-12-03T21:24:37.816Z,69.57
2022-12-03T21:27:06.993Z,74.00
2022-12-03T21:29:37.925Z,76.10
2022-12-03T21:32:07.850Z,72.27
2022-12-03T21:34:36.847Z,73.10
2022-12-03T21:37:06.345Z,80.07
2022-12-03T21:39:36.077Z,71.33
2022-12-03T21:42:34.859Z,80.17
2022-12-03T21:44:56.719Z,74.03
2022-12-03T21:47:25.850Z,84.33
2022-12-03T21:49:55.206Z,73.37
2022-12-03T21:52:24.520Z,80.77
2022-12-03T21:54:54.062Z,74.63
2022-12-03T21:57:23.412Z,68.90
2022-12-03T21:59:53.047Z,83.57
2022-12-03T22:02:24.260Z,71.63
2022-12-03T22:04:53.384Z,75.13
2022-12-03T22:07:22.323Z,72.07
2022-12-03T22:09:51.422Z,74.27
2022-12-03T22:12:20.472Z,68.17
2022-12-03T22:14:49.494Z,69.03
2022-12-03T22:17:18.509Z,59.27
2022-12-03T22:19:48.943Z,69.70
2022-12-03T22:22:17.999Z,66.37
2022-12-03T22:24:47.008Z,61.10
2022-12-03T22:27:16.380Z,65.50
2022-12-03T22:29:45.308Z,70.63
2022-12-03T22:32:14.354Z,62.83
2022-12-03T22:34:43.959Z,65.27
2022-12-03T22:37:14.463Z,65.20
2022-12-03T22:39:43.514Z,66.10
2022-12-03T22:42:12.545Z,62.13
2022-12-03T22:44:41.592Z,70.60
2022-12-03T22:47:10.628Z,62.53
2022-12-03T22:49:39.495Z,63.80
2022-12-03T22:52:09.225Z,73.57
2022-12-03T22:54:39.591Z,66.80
2022-12-03T22:57:08.615Z,68.33
2022-12-03T22:59:37.505Z,66.00
2022-12-03T23:02:06.420Z,69.77
2022-12-03T23:04:35.235Z,65.80
2022-12-03T23:07:04.161Z,69.30
2022-12-03T23:09:33.109Z,58.67
2022-12-03T23:12:03.482Z,72.97
2022-12-03T23:14:32.408Z,64.37
2022-12-03T23:17:01.326Z,67.43
2022-12-03T23:19:30.246Z,69.43
2022-12-03T23:21:59.649Z,63.23
2022-12-03T23:24:28.929Z,60.83
2022-12-03T23:26:58.721Z,62.03
2022-12-03T23:29:29.169Z,63.43
2022-12-03T23:31:58.881Z,61.27
2022-12-03T23:34:27.898Z,64.27
2022-12-03T23:36:56.899Z,60.80
2022-12-03T23:39:25.847Z,69.17
2022-12-03T23:41:54.762Z,61.93
2022-12-03T23:44:24.080Z,62.70
2022-12-03T23:46:54.541Z,64.63
2022-12-03T23:49:23.550Z,63.77
2022-12-03T23:51:52.416Z,61.30
2022-12-03T23:54:21.965Z,65.57
2022-12-03T23:56:50.954Z,66.83
2022-12-03T23:59:20.121Z,67.73
